Airfield :
LOGIN :

Register | Disclaimer

   EN    FR    IT 

 










Legend :    VFR   Marginal VFR   IFR   Intensive IFR   Very Intensive IFR
Visi :
Ceiling :
>= 8 km
>= 3000ft
5 to 8 km
1000 to 3000 ft
1500m to 5 km
500 to 1000 ft
800 to 1500m
200 to 500 ft
< 800m
< 200 ft
Symbols :   Thunderstorms  Fog  Heavy snow  Heavy precipitations  Wind > 20 kt
SIGMETs :     Misc.  Thunderstorms  Icing  Turbulence  Mountain Waves  Volcanic Ashes






- Airport Elevation : 46 ft
- IATA code : SNN


EINN - Shannon

CURRENT METAR :
  • 100000Z 15003KT CAVOK 10/08 Q1022 NOSIG

EXPIRED METARs :
  • 092330Z VRB02KT CAVOK 11/08 Q1022 NOSIG
  • 092300Z VRB03KT CAVOK 12/08 Q1022 NOSIG
  • 092230Z 12004KT CAVOK 12/08 Q1022 NOSIG
  • 092200Z 13002KT 9999 FEW040 BKN200 12/08 Q1022 NOSIG
  • 092130Z 13006KT 9999 FEW040 BKN200 13/09 Q1022 NOSIG

TAF TAF EINN
Valid from the 10 at 00:00 until the 11 at 00:00 UTC


092300Z 1000/1024 14005KT 9999 FEW035
PROB40
TEMPO 1000/1007 VRB03KT 3000 BR SCT005
TEMPO 1011/1019 -SHRA FEW018CB
PROB30
TEMPO 1012/1018 5000
BECMG 1013/1015 17008KT
BECMG 1017/1019 VRB03KT
TEMPO 1019/1024 BKN010
PROB30
TEMPO 1021/1024 3000 -RA BR BKN007



MET'MAP, your aeronautical weather chart ! - Copyright ORBIFLY December 2007 - Disclaimer

ORBIFLY MET'MAP TEAM :

Programming & Development : Alexandra Zaïnal
Concept & original design : Baudouin d'Aumeries
Assistance for programming : Marc-Olivier Méhu
Technical & hardware support : Manuel Goepfert

Contact : metmap@orbifly.com




SOURCES & CREDITS :

   NOAA